Weather at Johnston Atoll Airport [CLOSED]

Public forecast

Using degrees Celsius for public forecast. Weather courtesy of forecast.io.

Closest aviation weather report (METAR) to Johnston Atoll Airport

Closest report is Ellison Onizuka Kona International Airport at Keahole, 789.9 nm (1,462.8 km) ENE.

2024/05/19 00:53 (retrieved 44 minutes ago)

PHKO 190053Z 20013KT 10SM SCT055 28/22 A2996

Closest aviation forecast (TAF) to Johnston Atoll Airport

Forecast is more than 12 hours old.

Closest forecast is Kaneohe Bay MCAS (Marion E. Carl Field) Airport, 725.0 nm (1,342.6 km) ENE.

2024/05/17 18:24 Ammendment (retrieved 1 day ago)

AMD PHNG 1718/1815 18008KT 6000 -SHRA BR SCT005 BKN020 OVC045 QNH2984INS TEMPO 1715/1721 VRB05KT 3200 SHRA BR BKN005 OVC010 TEMPO 1720/1802 18010G18KT SCT010 BKN080 FM180230 VRB06KT 8000 -SHRA BR BKN005 OVC010 QNH2986INS TEMPO 1803/1809 16010KT 6000 -SHRA BR BKN010 BKN020 T29/1801Z T24/1814Z AMD 1820